Time;durP1;ratioP1;P1;durP2;ratioP2;P2;SDS_P1;SDS_P2;PMS_P1;PMS_P2;Temp;Humidity;BMP_temperature;BMP_pressure;BME280_temperature;BME280_humidity;BME280_pressure;Samples;Min_cycle;Max_cycle;Signal;HPM_P1;HPM_P2
2022/11/14 00:01:56;;;;;;;58.65;30.88;;;;;;;11.82;77.79;101961.44;5070333;28;20021;-77
2022/11/14 00:04:21;;;;;;;50.45;28.98;;;;;;;11.92;78.05;101986.84;5069796;28;20029;-75
2022/11/14 00:06:46;;;;;;;60.78;33.05;;;;;;;11.93;78.57;101983.16;5051503;28;20085;-77
2022/11/14 00:09:12;;;;;;;55.30;30.05;;;;;;;11.90;78.01;101979.78;5073863;28;20123;-75
2022/11/14 00:11:37;;;;;;;86.10;39.20;;;;;;;11.77;78.65;101971.63;5075938;28;20025;-76
2022/11/14 00:14:03;;;;;;;105.07;56.08;;;;;;;11.70;78.59;101986.50;5075479;28;20028;-76
2022/11/14 00:16:28;;;;;;;124.35;65.85;;;;;;;11.61;78.52;101978.97;5069176;28;20090;-74
2022/11/14 00:18:54;;;;;;;149.02;82.22;;;;;;;11.50;79.34;101978.78;5068999;28;20032;-75
2022/11/14 00:21:19;;;;;;;182.95;99.63;;;;;;;11.39;79.20;101979.47;5069112;28;20031;-75
2022/11/14 00:23:44;;;;;;;205.70;112.72;;;;;;;11.23;79.48;101965.22;5068815;28;20495;-75
2022/11/14 00:26:10;;;;;;;240.63;125.40;;;;;;;11.35;79.96;101974.38;5051009;28;20081;-74
2022/11/14 00:28:35;;;;;;;238.32;123.57;;;;;;;11.35;79.70;101971.66;5068874;28;20031;-76
2022/11/14 00:31:00;;;;;;;216.68;122.05;;;;;;;11.36;80.03;101970.72;5068765;28;20029;-75
2022/11/14 00:33:26;;;;;;;230.48;123.45;;;;;;;11.19;79.90;101952.06;5068879;28;20111;-75
2022/11/14 00:35:53;;;;;;;190.02;107.32;;;;;;;11.24;79.61;101966.09;5068331;28;20139;-74
2022/11/14 00:38:19;;;;;;;186.35;102.85;;;;;;;11.26;79.45;101980.31;5068545;28;20538;-76
2022/11/14 00:40:45;;;;;;;171.05;96.35;;;;;;;11.19;79.89;101976.31;5006159;28;20061;-75
2022/11/14 00:43:10;;;;;;;174.82;96.82;;;;;;;11.13;80.33;101960.53;5006312;28;20134;-74
2022/11/14 00:45:36;;;;;;;159.85;93.10;;;;;;;11.06;79.85;101959.19;5006444;28;20059;-74
2022/11/14 00:48:01;;;;;;;149.40;86.97;;;;;;;11.13;80.41;101968.63;5006442;28;20567;-76
2022/11/14 00:50:26;;;;;;;142.48;78.57;;;;;;;11.00;79.88;101962.25;5006341;28;20030;-76
2022/11/14 00:52:52;;;;;;;114.93;68.85;;;;;;;11.02;79.93;101961.19;5006512;28;20049;-75
2022/11/14 00:55:17;;;;;;;100.68;61.70;;;;;;;11.00;80.62;101962.25;5006374;28;20425;-76
2022/11/14 00:57:43;;;;;;;92.57;59.45;;;;;;;10.96;80.46;101956.19;5006452;28;20141;-76
2022/11/14 01:00:09;;;;;;;90.15;58.53;;;;;;;10.93;80.29;101956.38;4989847;28;20117;-76
2022/11/14 01:02:35;;;;;;;83.65;55.80;;;;;;;10.86;79.98;101955.88;5006048;28;20029;-75
2022/11/14 01:05:01;;;;;;;90.25;55.40;;;;;;;10.76;80.50;101932.34;5006442;28;20436;-75
2022/11/14 01:07:26;;;;;;;81.63;52.33;;;;;;;10.82;80.32;101950.81;5006311;28;20117;-77
2022/11/14 01:09:52;;;;;;;77.00;51.47;;;;;;;10.78;79.99;101942.03;5006724;28;20500;-76
2022/11/14 01:12:17;;;;;;;80.15;51.20;;;;;;;10.72;80.42;101945.13;5006517;28;20052;-76
2022/11/14 01:14:43;;;;;;;77.03;52.42;;;;;;;10.71;80.73;101940.69;5006772;28;20033;-75
2022/11/14 01:17:08;;;;;;;79.63;53.08;;;;;;;10.70;80.67;101948.84;5013337;28;20151;-76
2022/11/14 01:19:34;;;;;;;76.43;48.08;;;;;;;10.70;80.55;101938.94;5089812;28;20028;-74
2022/11/14 01:21:59;;;;;;;62.25;42.33;;;;;;;10.71;80.76;101942.50;5097623;28;20138;-76
2022/11/14 01:24:25;;;;;;;68.75;44.78;;;;;;;10.76;80.95;101951.19;5089543;28;20109;-76
2022/11/14 01:26:54;;;;;;;66.00;43.50;;;;;;;10.70;81.01;101930.84;5088554;28;20024;-76
2022/11/14 01:29:20;;;;;;;63.00;40.95;;;;;;;10.66;80.97;101921.28;5088682;28;20032;-75
2022/11/14 01:31:45;;;;;;;63.17;42.17;;;;;;;10.62;80.70;101914.34;5088360;28;20115;-75
2022/11/14 01:34:10;;;;;;;61.40;41.30;;;;;;;10.53;80.75;101898.75;5088777;28;20039;-74
2022/11/14 01:36:36;;;;;;;100.00;39.90;;;;;;;10.67;81.11;101936.44;5088592;28;20513;-76
2022/11/14 01:39:01;;;;;;;135.10;42.35;;;;;;;10.60;81.11;101926.16;5088323;28;20020;-76
2022/11/14 01:41:27;;;;;;;66.45;38.03;;;;;;;10.58;81.85;101928.91;5088318;28;20024;-75
2022/11/14 01:43:52;;;;;;;52.40;39.03;;;;;;;10.61;82.01;101939.50;5088106;28;20031;-75
2022/11/14 01:46:25;;;;;;;69.22;40.85;;;;;;;10.46;81.75;101918.91;5088111;28;20032;-74
2022/11/14 01:48:59;;;;;;;;;;;;;;;10.61;82.56;101944.03;5090771;28;20031;-74
2022/11/14 01:51:42;;;;;;;73.20;38.30;;;;;;;10.60;82.35;101931.53;5092170;28;19912;-75
2022/11/14 01:54:12;;;;;;;65.65;38.28;;;;;;;10.36;82.45;101901.63;5092301;28;20077;-76
2022/11/14 01:56:47;;;;;;;93.07;39.50;;;;;;;10.54;82.78;101926.53;5091740;28;20064;-76
2022/11/14 01:59:19;;;;;;;67.68;39.88;;;;;;;10.50;83.11;101923.16;5092011;28;20487;-76
2022/11/14 02:01:47;;;;;;;87.07;39.13;;;;;;;10.50;83.23;101930.34;5092058;28;20028;-76
2022/11/14 02:04:19;;;;;;;89.68;40.17;;;;;;;10.47;83.47;101926.03;5092010;28;20338;-75
2022/11/14 02:06:45;;;;;;;70.85;37.03;;;;;;;10.46;83.21;101924.28;5091755;28;20019;-77
2022/11/14 02:09:11;;;;;;;103.82;39.25;;;;;;;10.22;82.87;101899.72;5091754;28;20523;-75
2022/11/14 02:11:41;;;;;;;88.35;38.50;;;;;;;10.31;82.66;101909.06;5091725;28;20056;-75
2022/11/14 02:14:07;;;;;;;76.03;38.35;;;;;;;10.29;82.40;101905.63;5091648;28;20384;-76
2022/11/14 02:16:33;;;;;;;69.90;37.40;;;;;;;10.30;82.85;101912.75;5091652;28;20062;-76
2022/11/14 02:18:58;;;;;;;81.38;39.45;;;;;;;10.37;82.63;101930.22;5092746;28;20020;-75
2022/11/14 02:21:24;;;;;;;62.50;36.45;;;;;;;10.36;83.13;101924.00;5091878;28;20031;-76
2022/11/14 02:23:49;;;;;;;59.97;37.00;;;;;;;10.37;82.73;101927.53;5055663;28;20120;-76
2022/11/14 02:26:20;;;;;;;59.47;38.53;;;;;;;10.37;82.55;101914.06;5096942;28;20030;-76
2022/11/14 02:28:46;;;;;;;83.90;40.58;;;;;;;10.42;82.29;101919.19;5103571;28;20016;-76
2022/11/14 02:31:12;;;;;;;117.65;41.17;;;;;;;10.41;82.46;101931.78;5100471;28;20058;-76
2022/11/14 02:33:38;;;;;;;72.90;41.72;;;;;;;10.42;83.02;101922.75;5091311;28;20028;-75
2022/11/14 02:36:03;;;;;;;93.57;40.65;;;;;;;10.38;82.95;101921.19;5091065;28;20067;-75
2022/11/14 02:38:29;;;;;;;66.57;39.20;;;;;;;10.35;82.92;101911.50;5091151;28;20376;-75
2022/11/14 02:40:54;;;;;;;67.18;41.17;;;;;;;10.25;82.91;101890.63;5091088;28;20032;-75
2022/11/14 02:43:20;;;;;;;72.72;43.00;;;;;;;10.40;82.81;101923.81;5091271;28;20024;-74
2022/11/14 02:45:45;;;;;;;65.15;41.00;;;;;;;10.35;83.07;101919.56;5091259;28;20032;-76
2022/11/14 02:48:11;;;;;;;93.00;42.58;;;;;;;10.33;82.78;101912.56;5090988;28;20114;-75
2022/11/14 02:50:36;;;;;;;82.75;41.20;;;;;;;10.31;83.00;101909.06;5091061;28;20020;-75
2022/11/14 02:53:02;;;;;;;63.03;40.67;;;;;;;10.27;82.84;101905.69;5091048;28;20040;-76
2022/11/14 02:55:27;;;;;;;66.65;41.97;;;;;;;10.28;82.85;101914.63;5090992;28;20031;-75
2022/11/14 02:57:52;;;;;;;55.95;40.88;;;;;;;10.17;82.77;101887.53;5091012;28;20028;-75
2022/11/14 03:00:18;;;;;;;53.92;39.78;;;;;;;10.32;82.64;101914.38;5071158;28;20032;-75
2022/11/14 03:02:43;;;;;;;77.30;43.75;;;;;;;10.12;82.30;101893.13;5090831;28;20035;-75
2022/11/14 03:05:09;;;;;;;80.97;44.65;;;;;;;10.22;82.01;101915.00;5090768;28;20536;-75
2022/11/14 03:07:34;;;;;;;75.60;43.40;;;;;;;10.22;82.30;101920.38;5090691;28;20647;-75
2022/11/14 03:10:00;;;;;;;65.13;43.80;;;;;;;10.18;82.42;101927.75;5090962;28;20027;-75
2022/11/14 03:12:26;;;;;;;56.03;41.70;;;;;;;10.10;82.70;101916.56;5090487;28;20028;-75
2022/11/14 03:14:52;;;;;;;59.15;40.65;;;;;;;10.12;82.60;101924.56;5090576;28;20705;-74
2022/11/14 03:17:17;;;;;;;58.70;39.28;;;;;;;9.94;82.56;101893.38;5090510;28;20035;-75
2022/11/14 03:19:42;;;;;;;57.17;40.45;;;;;;;9.97;82.98;101917.38;5090496;28;20039;-75
2022/11/14 03:22:08;;;;;;;54.67;42.58;;;;;;;9.98;83.16;101927.16;5090021;28;20046;-76
2022/11/14 03:24:33;;;;;;;63.92;40.65;;;;;;;10.02;83.09;101917.97;5090879;28;20467;-75
2022/11/14 03:26:59;;;;;;;64.55;40.47;;;;;;;10.02;83.39;101923.34;5090726;28;20039;-75
2022/11/14 03:29:24;;;;;;;62.45;43.47;;;;;;;10.09;83.04;101925.56;5090142;28;20475;-78
2022/11/14 03:31:49;;;;;;;72.80;41.28;;;;;;;10.10;83.31;101931.81;5090259;28;20073;-75
2022/11/14 03:34:15;;;;;;;60.58;41.08;;;;;;;10.10;83.35;101923.75;5092590;28;20403;-74
2022/11/14 03:36:40;;;;;;;64.75;42.45;;;;;;;10.13;83.22;101923.56;5095793;28;20032;-77
2022/11/14 03:39:06;;;;;;;62.83;42.83;;;;;;;9.97;83.19;101893.19;5095926;28;20036;-76
2022/11/14 03:41:31;;;;;;;72.82;43.58;;;;;;;9.93;83.04;101894.31;5090373;28;20050;-75
2022/11/14 03:43:56;;;;;;;67.50;44.67;;;;;;;10.17;83.09;101926.03;5089945;28;20031;-75
2022/11/14 03:46:23;;;;;;;89.28;43.78;;;;;;;10.20;83.21;101925.84;5089908;28;20035;-75
2022/11/14 03:48:48;;;;;;;94.43;43.85;;;;;;;10.21;82.77;101934.78;5089982;28;20116;-75
2022/11/14 03:51:14;;;;;;;93.95;42.28;;;;;;;9.95;82.72;101889.72;5089761;28;20044;-75
2022/11/14 03:53:39;;;;;;;80.35;42.38;;;;;;;10.07;82.62;101929.31;5084741;28;20102;-74
2022/11/14 03:56:05;;;;;;;63.08;41.75;;;;;;;10.10;83.01;101926.44;5069455;28;20024;-75
2022/11/14 03:58:30;;;;;;;71.05;40.92;;;;;;;10.07;83.07;101927.50;5069676;28;20035;-75
2022/11/14 04:00:56;;;;;;;57.65;38.80;;;;;;;10.11;82.97;101929.06;5069130;28;20098;-76
2022/11/14 04:03:23;;;;;;;59.70;38.08;;;;;;;10.09;82.82;101935.47;5069399;28;20024;-76
2022/11/14 04:05:49;;;;;;;56.63;36.90;;;;;;;9.81;82.61;101928.16;5068928;28;20032;-75
2022/11/14 04:08:14;;;;;;;50.03;34.47;;;;;;;9.62;82.44;101924.78;5069376;28;20480;-76
2022/11/14 04:10:40;;;;;;;53.30;32.92;;;;;;;9.78;82.33;101936.38;5068872;28;20025;-77
2022/11/14 04:13:06;;;;;;;51.85;34.55;;;;;;;9.78;82.37;101931.84;5069148;28;20093;-77
2022/11/14 04:15:32;;;;;;;48.53;32.90;;;;;;;9.56;82.64;101899.13;5069134;28;20036;-74
2022/11/14 04:17:57;;;;;;;47.63;32.20;;;;;;;9.76;82.78;101939.16;5068906;28;20024;-75
2022/11/14 04:20:23;;;;;;;55.13;32.85;;;;;;;9.71;82.50;101925.13;5068907;28;20032;-74
2022/11/14 04:22:48;;;;;;;50.17;31.25;;;;;;;9.74;82.13;101924.94;5068923;28;20376;-77
2022/11/14 04:25:13;;;;;;;57.75;33.70;;;;;;;9.71;82.22;101917.06;5069080;28;20124;-78
2022/11/14 04:27:39;;;;;;;62.10;34.97;;;;;;;9.69;81.76;101899.31;5069045;28;20055;-78
2022/11/14 04:30:06;;;;;;;40.25;29.77;;;;;;;9.96;81.71;101934.47;5069000;28;20669;-77
2022/11/14 04:32:31;;;;;;;47.28;32.88;;;;;;;9.89;81.38;101925.00;5068980;28;20032;-79
2022/11/14 04:34:56;;;;;;;73.25;44.88;;;;;;;9.91;80.92;101931.19;5085137;28;20048;-78
2022/11/14 04:37:22;;;;;;;49.88;35.47;;;;;;;9.94;80.60;101936.38;5089307;28;20028;-77
2022/11/14 04:39:48;;;;;;;57.88;36.22;;;;;;;9.90;80.45;101934.81;5070931;28;20145;-77
2022/11/14 04:42:13;;;;;;;51.25;35.55;;;;;;;9.90;80.49;101929.44;5093748;28;20036;-78
2022/11/14 04:44:39;;;;;;;46.90;32.15;;;;;;;9.83;80.30;101940.53;5110178;28;20042;-77
2022/11/14 04:47:04;;;;;;;49.30;31.08;;;;;;;9.90;80.59;101933.00;5112139;28;20062;-78
2022/11/14 04:49:29;;;;;;;55.63;33.55;;;;;;;9.92;80.29;101924.81;5095984;28;20439;-77
2022/11/14 04:51:55;;;;;;;57.03;31.75;;;;;;;10.02;80.21;101936.78;5088666;28;20031;-78
2022/11/14 04:54:20;;;;;;;61.25;33.00;;;;;;;10.01;79.91;101938.59;5089317;28;20035;-77
2022/11/14 04:56:46;;;;;;;47.53;28.20;;;;;;;9.98;80.12;101941.47;5088685;28;20028;-76
2022/11/14 04:59:11;;;;;;;61.75;27.70;;;;;;;9.96;80.43;101923.72;5088710;28;20025;-79
2022/11/14 05:01:37;;;;;;;59.05;29.27;;;;;;;10.08;80.62;101936.44;5088469;28;20509;-78
2022/11/14 05:04:02;;;;;;;58.15;28.02;;;;;;;10.14;80.99;101944.16;5088546;28;20051;-78
2022/11/14 05:06:28;;;;;;;68.50;31.10;;;;;;;10.06;80.88;101924.91;5088354;28;20023;-78
2022/11/14 05:08:53;;;;;;;68.05;30.80;;;;;;;10.20;81.14;101946.50;5070124;28;20032;-78
2022/11/14 05:11:20;;;;;;;52.60;27.88;;;;;;;10.26;81.42;101943.44;5088501;28;20067;-78
2022/11/14 05:13:45;;;;;;;47.78;26.73;;;;;;;10.33;80.79;101963.66;5087939;28;20024;-78
2022/11/14 05:16:12;;;;;;;46.50;26.20;;;;;;;10.36;80.59;101952.72;5088227;28;20024;-79
2022/11/14 05:18:38;;;;;;;54.00;23.88;;;;;;;10.36;80.32;101950.91;5088115;28;20166;-76
2022/11/14 05:21:04;;;;;;;43.58;24.88;;;;;;;10.32;79.55;101959.22;5088009;28;20036;-76
2022/11/14 05:23:30;;;;;;;45.70;22.38;;;;;;;10.30;79.53;101955.75;5089528;28;20028;-76
2022/11/14 05:26:04;;;;;;;43.42;21.65;;;;;;;10.27;78.89;101958.63;5056252;28;20142;-75
2022/11/14 05:28:30;;;;;;;30.60;19.70;;;;;;;9.91;78.36;101918.59;5092100;28;20114;-77
2022/11/14 05:31:06;;;;;;;28.15;16.98;;;;;;;10.03;78.43;101958.19;5092248;28;20114;-75
2022/11/14 05:33:32;;;;;;;66.15;20.90;;;;;;;10.04;78.53;101964.44;5091956;28;20044;-75
2022/11/14 05:36:09;;;;;;;41.55;21.10;;;;;;;10.03;78.94;101962.72;5092161;28;20056;-76
2022/11/14 05:38:35;;;;;;;28.88;18.70;;;;;;;9.84;78.84;101931.53;5092153;28;20024;-77
2022/11/14 05:41:08;;;;;;;44.90;20.23;;;;;;;9.96;79.06;101953.28;5092317;28;20024;-76
2022/11/14 05:43:34;;;;;;;143.23;27.05;;;;;;;9.98;79.09;101954.03;5092556;28;20051;-77
2022/11/14 05:46:05;;;;;;;66.07;20.33;;;;;;;10.04;79.26;101970.69;5092303;28;20386;-77
2022/11/14 05:48:31;;;;;;;168.30;23.15;;;;;;;10.05;79.00;101956.28;5091912;28;20101;-76
2022/11/14 05:50:58;;;;;;;90.50;22.98;;;;;;;9.93;79.30;101932.81;5096475;28;20028;-77
2022/11/14 05:53:24;;;;;;;35.20;16.38;;;;;;;10.23;79.04;101970.50;5103937;28;20119;-77
2022/11/14 05:55:50;;;;;;;37.08;17.60;;;;;;;10.21;78.82;101972.44;5103631;28;20108;-76
2022/11/14 05:58:15;;;;;;;51.13;19.02;;;;;;;9.93;78.80;101934.63;5095136;28;20508;-76
2022/11/14 06:00:41;;;;;;;43.75;16.58;;;;;;;10.27;78.85;101980.16;5073835;28;20410;-75
2022/11/14 06:03:06;;;;;;;38.75;15.07;;;;;;;10.24;78.48;101973.09;5091683;28;20028;-75
2022/11/14 06:05:34;;;;;;;29.60;18.13;;;;;;;10.33;78.84;101977.97;5091419;28;20028;-74
2022/11/14 06:08:00;;;;;;;37.67;19.10;;;;;;;10.25;78.95;101963.22;5091723;28;20514;-77
2022/11/14 06:10:25;;;;;;;34.47;17.73;;;;;;;10.26;79.28;101948.81;5091422;28;20111;-78
2022/11/14 06:12:51;;;;;;;52.85;20.55;;;;;;;10.34;79.12;101951.91;5091590;28;20149;-77
2022/11/14 06:15:17;;;;;;;54.05;20.27;;;;;;;10.55;80.00;101977.53;5090108;28;20035;-78
2022/11/14 06:17:42;;;;;;;43.38;23.90;;;;;;;10.58;79.55;101968.44;5090225;28;20020;-76
2022/11/14 06:20:08;;;;;;;54.88;26.40;;;;;;;10.59;80.15;101968.31;5091303;28;20024;-76
2022/11/14 06:22:34;;;;;;;69.97;27.92;;;;;;;10.60;81.27;101978.13;5091058;28;20115;-75
2022/11/14 06:25:01;;;;;;;60.45;29.23;;;;;;;10.66;81.55;101975.09;5090536;28;20237;-74
2022/11/14 06:27:26;;;;;;;91.90;32.00;;;;;;;10.74;82.59;101978.16;5091291;28;20478;-76
2022/11/14 06:29:52;;;;;;;73.40;33.00;;;;;;;10.78;82.46;101965.41;5090788;28;20028;-78
2022/11/14 06:32:17;;;;;;;79.93;33.00;;;;;;;10.86;83.15;101971.16;5090760;28;20024;-76
2022/11/14 06:34:42;;;;;;;94.45;35.17;;;;;;;10.77;83.78;101936.75;5090482;28;20048;-77
2022/11/14 06:37:08;;;;;;;84.85;33.85;;;;;;;11.04;83.78;101974.56;5090675;28;20138;-77
2022/11/14 06:39:33;;;;;;;73.93;33.03;;;;;;;11.14;83.29;101975.72;5090572;28;20913;-78
2022/11/14 06:41:59;;;;;;;67.18;32.42;;;;;;;11.24;83.76;101974.19;5090780;28;20070;-77
2022/11/14 06:44:24;;;;;;;88.10;35.25;;;;;;;11.36;82.69;101981.50;5090973;28;20056;-79
2022/11/14 06:46:50;;;;;;;84.88;33.78;;;;;;;11.40;82.50;101983.03;5090449;28;20047;-77
2022/11/14 06:49:15;;;;;;;218.05;43.50;;;;;;;11.47;82.19;101966.38;5090589;28;20058;-78
2022/11/14 06:51:40;;;;;;;123.05;42.08;;;;;;;11.55;81.15;101948.84;5091342;28;20039;-78
2022/11/14 06:54:06;;;;;;;72.40;39.03;;;;;;;11.74;81.29;101966.44;5090934;28;20028;-76
2022/11/14 06:56:31;;;;;;;85.57;39.97;;;;;;;11.79;80.04;101958.94;5091095;28;20034;-77
2022/11/14 06:58:57;;;;;;;70.10;40.10;;;;;;;11.87;78.78;101967.38;5092686;28;20067;-77
2022/11/14 07:01:27;;;;;;;132.43;54.85;;;;;;;11.92;77.41;101962.59;5103414;28;20020;-76
2022/11/14 07:03:52;;;;;;;82.35;40.05;;;;;;;11.90;77.30;101961.78;5102407;28;20035;-77
2022/11/14 07:06:21;;;;;;;73.07;39.50;;;;;;;11.92;76.72;101967.09;5075995;28;20048;-78
2022/11/14 07:08:47;;;;;;;101.03;43.60;;;;;;;11.96;76.17;101961.41;5090472;28;20172;-76
2022/11/14 07:11:21;;;;;;;94.57;44.53;;;;;;;12.02;76.70;101961.97;5089941;28;20032;-77
2022/11/14 07:13:58;;;;;;;99.80;56.47;;;;;;;12.06;76.29;101961.66;5090264;28;20090;-77
2022/11/14 07:16:28;;;;;;;68.65;40.25;;;;;;;12.00;75.65;101962.06;5089926;28;20028;-76
2022/11/14 07:18:55;;;;;;;75.93;40.08;;;;;;;11.78;75.41;101935.66;5090595;28;20386;-78
2022/11/14 07:21:20;;;;;;;60.55;35.50;;;;;;;11.99;75.75;101966.59;5089499;28;20499;-77
2022/11/14 07:23:46;;;;;;;69.40;36.65;;;;;;;11.91;75.15;101958.16;5089624;28;20035;-77
2022/11/14 07:26:12;;;;;;;79.05;41.08;;;;;;;11.93;75.75;101971.50;5089796;28;20497;-78
2022/11/14 07:28:42;;;;;;;76.68;40.35;;;;;;;11.92;75.81;101959.88;5089656;28;20085;-77
2022/11/14 07:31:14;;;;;;;91.22;43.97;;;;;;;11.84;75.75;101951.41;5089927;28;20024;-77
2022/11/14 07:33:40;;;;;;;84.18;43.40;;;;;;;11.76;75.64;101942.97;5089758;28;20020;-76
2022/11/14 07:36:07;;;;;;;94.45;44.60;;;;;;;11.85;76.23;101965.75;5089421;28;20052;-77
2022/11/14 07:38:34;;;;;;;122.43;47.35;;;;;;;11.89;76.47;101960.09;5089216;28;20538;-77
2022/11/14 07:41:02;;;;;;;89.25;45.17;;;;;;;11.94;76.72;101957.94;5089432;28;20028;-77
2022/11/14 07:43:28;;;;;;;93.22;51.67;;;;;;;11.96;77.05;101960.53;5089294;28;20020;-76
2022/11/14 07:45:57;;;;;;;104.38;48.15;;;;;;;12.00;76.76;101957.53;5088621;28;20043;-77
2022/11/14 07:48:22;;;;;;;118.72;49.72;;;;;;;11.94;77.04;101927.41;5089240;28;20035;-77
2022/11/14 07:50:48;;;;;;;86.65;45.13;;;;;;;12.15;76.45;101941.28;5071166;28;20028;-75
2022/11/14 07:53:14;;;;;;;91.78;44.92;;;;;;;12.25;76.18;101950.50;5071197;28;20059;-76
2022/11/14 07:55:40;;;;;;;219.13;52.47;;;;;;;12.34;76.74;101949.88;5089273;28;20031;-78
2022/11/14 07:58:05;;;;;;;140.43;48.75;;;;;;;12.48;76.62;101947.09;5046313;28;20037;-76
2022/11/14 08:00:30;;;;;;;164.70;52.72;;;;;;;12.57;76.30;101950.03;5047719;28;20044;-78
2022/11/14 08:02:56;;;;;;;101.32;49.28;;;;;;;12.61;76.25;101948.00;5047407;28;20044;-76
2022/11/14 08:05:21;;;;;;;93.47;50.05;;;;;;;12.70;76.24;101941.97;5046361;28;20033;-74
2022/11/14 08:07:51;;;;;;;90.68;46.67;;;;;;;12.87;76.27;101947.03;5051142;28;20041;-76
2022/11/14 08:10:17;;;;;;;80.28;44.92;;;;;;;13.00;76.06;101945.22;5058842;28;20029;-75
2022/11/14 08:12:43;;;;;;;86.97;44.80;;;;;;;13.09;75.24;101927.50;5053536;28;20076;-75
2022/11/14 08:15:11;;;;;;;109.35;43.75;;;;;;;13.28;74.90;101940.56;5046622;28;20033;-76
2022/11/14 08:17:36;;;;;;;139.98;50.42;;;;;;;13.60;74.29;101958.91;5045974;28;20048;-74
2022/11/14 08:20:03;;;;;;;98.78;44.70;;;;;;;13.72;73.83;101940.94;5046132;28;20478;-76
2022/11/14 08:22:30;;;;;;;152.10;45.88;;;;;;;13.89;72.56;101951.34;5046013;28;20037;-75
2022/11/14 08:24:55;;;;;;;134.95;46.40;;;;;;;13.94;71.95;101938.34;5046023;28;20037;-75
2022/11/14 08:27:21;;;;;;;195.52;49.08;;;;;;;14.14;71.91;101940.44;5045805;28;20534;-76
2022/11/14 08:29:47;;;;;;;155.13;51.65;;;;;;;14.24;70.98;101924.38;5079819;28;20056;-75
2022/11/14 08:32:12;;;;;;;92.18;43.22;;;;;;;14.48;70.48;101943.31;5088784;28;20054;-76
2022/11/14 08:34:38;;;;;;;110.90;43.05;;;;;;;14.52;69.62;101933.97;5089175;28;20054;-76
2022/11/14 08:37:03;;;;;;;126.25;43.28;;;;;;;14.66;69.56;101944.59;5089636;28;20107;-75
2022/11/14 08:39:28;;;;;;;105.00;43.70;;;;;;;14.77;69.50;101939.19;5088516;28;20035;-75
2022/11/14 08:41:54;;;;;;;94.00;44.10;;;;;;;14.82;68.79;101937.00;5088893;28;20051;-76
2022/11/14 08:44:20;;;;;;;74.53;39.95;;;;;;;14.88;68.06;101941.94;5088804;28;20028;-76
2022/11/14 08:46:45;;;;;;;95.82;43.70;;;;;;;15.01;68.63;101937.28;5088691;28;20042;-78
2022/11/14 08:49:10;;;;;;;71.13;41.22;;;;;;;15.09;68.21;101932.09;5088158;28;20674;-77
2022/11/14 08:51:36;;;;;;;82.90;40.70;;;;;;;15.22;67.37;101930.16;5088705;28;20035;-77
2022/11/14 08:54:01;;;;;;;75.63;41.63;;;;;;;15.06;65.89;101913.38;5088572;28;20024;-77
2022/11/14 08:56:27;;;;;;;130.27;46.53;;;;;;;14.98;66.50;101907.69;5088425;28;20058;-78
2022/11/14 08:58:52;;;;;;;69.50;39.88;;;;;;;14.92;66.04;101900.06;5088381;28;20064;-76
2022/11/14 09:01:18;;;;;;;90.05;39.85;;;;;;;15.11;65.98;101924.72;5088372;28;20035;-75
2022/11/14 09:03:43;;;;;;;89.55;40.10;;;;;;;15.09;65.75;101918.56;5088961;28;20463;-77
2022/11/14 09:06:09;;;;;;;81.75;39.60;;;;;;;15.09;65.47;101923.97;5088300;28;20526;-77
2022/11/14 09:08:35;;;;;;;78.35;38.33;;;;;;;14.99;65.74;101924.81;5089169;28;20039;-75
2022/11/14 09:11:02;;;;;;;84.35;40.97;;;;;;;15.13;65.22;101922.75;5088931;28;20073;-77
2022/11/14 09:13:28;;;;;;;90.47;41.47;;;;;;;15.17;65.03;101921.50;5088430;28;20035;-76
2022/11/14 09:15:53;;;;;;;87.70;39.67;;;;;;;15.12;64.63;101896.63;5098127;28;20020;-75
2022/11/14 09:18:19;;;;;;;66.50;36.80;;;;;;;15.16;63.99;101919.81;5098969;28;20100;-75
2022/11/14 09:20:45;;;;;;;72.30;35.17;;;;;;;15.07;63.94;101915.13;5106716;28;20019;-78
2022/11/14 09:23:11;;;;;;;69.07;36.45;;;;;;;15.06;64.33;101913.38;5083969;28;20092;-78
2022/11/14 09:25:37;;;;;;;83.13;40.22;;;;;;;14.99;64.91;101917.56;5087692;28;20032;-76
2022/11/14 09:28:05;;;;;;;73.30;36.55;;;;;;;14.92;64.31;101912.75;5092107;28;20056;-75
2022/11/14 09:30:31;;;;;;;67.50;36.65;;;;;;;14.90;64.26;101917.41;5088507;28;20047;-76
2022/11/14 09:33:02;;;;;;;85.60;41.42;;;;;;;14.73;64.04;101879.97;5086261;28;20035;-78
2022/11/14 09:35:28;;;;;;;71.82;36.15;;;;;;;14.87;64.05;101902.28;5089466;28;20052;-78
2022/11/14 09:38:05;;;;;;;87.45;38.65;;;;;;;14.65;64.72;101900.38;5088968;28;20477;-79
2022/11/14 09:40:51;;;;;;;74.20;35.15;;;;;;;14.64;64.43;101890.56;5087248;28;20035;-78
2022/11/14 09:43:38;;;;;;;70.10;34.03;;;;;;;14.74;64.06;101901.50;5075947;28;20036;-77
2022/11/14 09:46:15;;;;;;;79.18;34.13;;;;;;;14.60;63.97;101882.78;5060359;28;20577;-76
2022/11/14 09:48:41;;;;;;;62.08;33.58;;;;;;;14.78;63.46;101896.72;5088225;28;20058;-75
2022/11/14 09:51:08;;;;;;;66.47;32.42;;;;;;;14.76;62.96;101898.69;5086956;28;20020;-75
2022/11/14 09:53:43;;;;;;;72.47;34.95;;;;;;;14.68;63.17;101896.56;5084391;28;20074;-76
2022/11/14 09:56:14;;;;;;;74.63;35.45;;;;;;;14.65;63.31;101894.09;5087914;28;20673;-76
2022/11/14 09:58:41;;;;;;;69.80;35.70;;;;;;;14.59;63.29;101876.50;5088123;28;20059;-77
2022/11/14 10:01:39;;;;;;;68.47;33.55;;;;;;;14.54;63.35;101884.13;5086372;28;20032;-74
2022/11/14 10:04:26;;;;;;;70.97;34.22;;;;;;;14.54;63.59;101889.53;5088501;28;20020;-75
2022/11/14 10:07:11;;;;;;;80.05;35.20;;;;;;;14.42;63.58;101857.16;5088654;28;20928;-76
2022/11/14 10:10:13;;;;;;;71.85;34.03;;;;;;;14.62;63.91;101875.41;5088974;28;20028;-78
2022/11/14 10:12:56;;;;;;;78.63;35.38;;;;;;;14.64;63.45;101876.16;5091416;28;20036;-78
2022/11/14 10:15:28;;;;;;;64.90;34.95;;;;;;;14.43;63.14;101837.22;5091788;28;20131;-78
2022/11/14 10:17:56;;;;;;;92.90;39.78;;;;;;;14.66;63.79;101871.47;5092129;28;20035;-78
2022/11/14 10:20:35;;;;;;;76.05;36.67;;;;;;;14.62;63.28;101868.13;5104957;28;20030;-77
2022/11/14 10:23:10;;;;;;;69.68;34.53;;;;;;;14.53;63.92;101851.75;5100095;28;20019;-78
2022/11/14 10:25:36;;;;;;;69.95;36.10;;;;;;;14.59;64.12;101864.81;5103335;28;20083;-77
2022/11/14 10:28:28;;;;;;;81.63;38.22;;;;;;;14.78;63.93;101866.91;5100974;28;20513;-79
2022/11/14 10:31:13;;;;;;;85.68;39.47;;;;;;;14.85;63.80;101855.50;5053088;28;20029;-77
2022/11/14 10:33:45;;;;;;;454.52;324.73;;;;;;;14.83;63.59;101857.44;5100766;28;20336;-75
2022/11/14 10:36:22;;;;;;;70.10;36.35;;;;;;;14.91;63.51;101855.00;5091301;28;20044;-75
2022/11/14 10:38:55;;;;;;;89.88;39.42;;;;;;;14.77;62.97;101816.47;5090808;28;20109;-75
2022/11/14 10:41:24;;;;;;;65.90;36.08;;;;;;;14.89;62.79;101840.69;5090992;28;20557;-77
2022/11/14 10:43:50;;;;;;;67.13;35.72;;;;;;;14.75;62.63;101846.38;5055759;28;21162;-76
2022/11/14 10:46:17;;;;;;;94.50;40.75;;;;;;;14.71;63.48;101845.75;5092310;28;20043;-77
2022/11/14 10:48:48;;;;;;;84.72;40.95;;;;;;;14.71;63.58;101853.88;5090603;28;20067;-77
2022/11/14 10:51:36;;;;;;;79.22;39.00;;;;;;;14.73;63.72;101840.22;5070495;28;20064;-73
2022/11/14 10:54:20;;;;;;;76.18;37.38;;;;;;;14.80;63.18;101836.03;5082512;28;20031;-74
2022/11/14 10:56:50;;;;;;;73.65;34.97;;;;;;;14.77;62.44;101847.09;5079571;28;20543;-75
2022/11/14 10:59:16;;;;;;;66.03;33.70;;;;;;;14.56;62.55;101816.31;5090268;28;20032;-75
2022/11/14 11:01:55;;;;;;;68.15;32.38;;;;;;;14.71;62.25;101844.88;5089857;28;20039;-74
2022/11/14 11:04:28;;;;;;;67.60;32.13;;;;;;;14.65;62.33;101848.94;5090158;28;20028;-76
2022/11/14 11:13:14;;;;;;;68.30;34.15;;;;;;;14.61;63.16;101852.03;4967740;28;20704;-75
2022/11/14 11:15:41;;;;;;;70.85;32.83;;;;;;;14.51;63.10;101840.19;4972843;28;20038;-75
2022/11/14 11:18:27;;;;;;;76.15;36.00;;;;;;;14.57;63.28;101842.41;4988170;28;20125;-74